Select Airport:
Chesapeake Regional Airport
Last updated: 21 minutes ago
Flight conditions: IFR
Visibility: 10.0 statute miles
Sky Conditions:
   Broken clouds at 700 feet
   Overcast at 1200 feet
Wind From: 210°
Wind speed: 5 knots (5.75 mph)
Temperature: 18.6°C (65.48°F)
Dew Point: 18.0°C (64.4°F)
Altimiter setting: 29.90 in-hg
WX phone: 1-757-204-4290
WX freq: 123.675 MHz
Runway 23
   Crosswind component: 1.71 knots (1.97 mph)
   Headwind component: 4.7 knots (5.4 mph)
KCPK 151735Z AUTO 21005KT 10SM BKN007 OVC012 19/18 A2990 RMK AO2 T01860180
FOR REFERENCE USE ONLY, DATA MAY NOT BE CURRENT.
ALWAYS CHECK FOR UP TO DATE INFORMATION.